sensor_id;sensor_type;location;lat;lon;timestamp;P1;durP1;ratioP1;P2;durP2;ratioP2
64293;SDS011;50636;45.596;5.258;2023-04-25T00:01:36;17.55;;;7.25;;
64293;SDS011;50636;45.596;5.258;2023-04-25T00:04:02;25.17;;;8.07;;
64293;SDS011;50636;45.596;5.258;2023-04-25T00:06:31;19.17;;;7.57;;
64293;SDS011;50636;45.596;5.258;2023-04-25T00:09:01;14.07;;;6.05;;
64293;SDS011;50636;45.596;5.258;2023-04-25T00:11:29;29.52;;;7.82;;
64293;SDS011;50636;45.596;5.258;2023-04-25T00:13:56;22.02;;;7.13;;
64293;SDS011;50636;45.596;5.258;2023-04-25T00:16:22;14.52;;;6.40;;
64293;SDS011;50636;45.596;5.258;2023-04-25T00:18:48;16.15;;;7.25;;
64293;SDS011;50636;45.596;5.258;2023-04-25T00:21:17;13.93;;;7.43;;
64293;SDS011;50636;45.596;5.258;2023-04-25T00:23:45;19.65;;;7.22;;
64293;SDS011;50636;45.596;5.258;2023-04-25T00:26:11;14.40;;;6.93;;
64293;SDS011;50636;45.596;5.258;2023-04-25T00:28:37;38.15;;;9.45;;
64293;SDS011;50636;45.596;5.258;2023-04-25T00:31:04;24.60;;;8.00;;
64293;SDS011;50636;45.596;5.258;2023-04-25T00:33:29;16.70;;;7.95;;
64293;SDS011;50636;45.596;5.258;2023-04-25T00:35:55;14.88;;;6.60;;
64293;SDS011;50636;45.596;5.258;2023-04-25T00:38:21;19.42;;;8.07;;
64293;SDS011;50636;45.596;5.258;2023-04-25T00:40:47;19.88;;;7.45;;
64293;SDS011;50636;45.596;5.258;2023-04-25T00:43:13;30.70;;;9.23;;
64293;SDS011;50636;45.596;5.258;2023-04-25T00:45:39;20.17;;;6.97;;
64293;SDS011;50636;45.596;5.258;2023-04-25T00:48:05;13.13;;;4.30;;
64293;SDS011;50636;45.596;5.258;2023-04-25T00:50:32;8.55;;;4.18;;
64293;SDS011;50636;45.596;5.258;2023-04-25T00:52:59;11.55;;;6.22;;
64293;SDS011;50636;45.596;5.258;2023-04-25T00:55:25;26.13;;;6.10;;
64293;SDS011;50636;45.596;5.258;2023-04-25T00:57:51;10.88;;;4.60;;
64293;SDS011;50636;45.596;5.258;2023-04-25T01:00:18;23.48;;;6.43;;
64293;SDS011;50636;45.596;5.258;2023-04-25T01:02:44;17.98;;;5.72;;
64293;SDS011;50636;45.596;5.258;2023-04-25T01:05:11;13.07;;;4.75;;
64293;SDS011;50636;45.596;5.258;2023-04-25T01:07:37;15.55;;;5.15;;
64293;SDS011;50636;45.596;5.258;2023-04-25T01:10:04;15.55;;;6.45;;
64293;SDS011;50636;45.596;5.258;2023-04-25T01:12:31;18.83;;;6.75;;
64293;SDS011;50636;45.596;5.258;2023-04-25T01:14:57;12.23;;;6.07;;
64293;SDS011;50636;45.596;5.258;2023-04-25T01:17:23;25.52;;;8.35;;
64293;SDS011;50636;45.596;5.258;2023-04-25T01:19:49;23.58;;;6.22;;
64293;SDS011;50636;45.596;5.258;2023-04-25T01:22:15;17.48;;;6.63;;
64293;SDS011;50636;45.596;5.258;2023-04-25T01:24:42;18.40;;;7.13;;
64293;SDS011;50636;45.596;5.258;2023-04-25T01:27:08;19.80;;;7.85;;
64293;SDS011;50636;45.596;5.258;2023-04-25T01:29:35;19.27;;;7.55;;
64293;SDS011;50636;45.596;5.258;2023-04-25T01:32:01;22.67;;;8.73;;
64293;SDS011;50636;45.596;5.258;2023-04-25T01:34:27;17.00;;;7.10;;
64293;SDS011;50636;45.596;5.258;2023-04-25T01:36:53;19.00;;;6.47;;
64293;SDS011;50636;45.596;5.258;2023-04-25T01:39:19;24.05;;;7.07;;
64293;SDS011;50636;45.596;5.258;2023-04-25T01:41:48;21.02;;;5.82;;
64293;SDS011;50636;45.596;5.258;2023-04-25T01:44:14;23.15;;;6.50;;
64293;SDS011;50636;45.596;5.258;2023-04-25T01:46:40;22.38;;;6.57;;
64293;SDS011;50636;45.596;5.258;2023-04-25T01:49:06;20.17;;;6.55;;
64293;SDS011;50636;45.596;5.258;2023-04-25T01:51:32;20.08;;;5.90;;
64293;SDS011;50636;45.596;5.258;2023-04-25T01:53:58;6.97;;;3.83;;
64293;SDS011;50636;45.596;5.258;2023-04-25T01:56:25;16.25;;;4.25;;
64293;SDS011;50636;45.596;5.258;2023-04-25T01:58:54;19.58;;;5.05;;
64293;SDS011;50636;45.596;5.258;2023-04-25T02:01:20;15.07;;;3.63;;
64293;SDS011;50636;45.596;5.258;2023-04-25T02:03:46;16.75;;;4.65;;
64293;SDS011;50636;45.596;5.258;2023-04-25T02:06:12;13.80;;;3.92;;
64293;SDS011;50636;45.596;5.258;2023-04-25T02:08:37;14.07;;;3.75;;
64293;SDS011;50636;45.596;5.258;2023-04-25T02:11:03;37.28;;;6.82;;
64293;SDS011;50636;45.596;5.258;2023-04-25T02:13:29;16.88;;;5.25;;
64293;SDS011;50636;45.596;5.258;2023-04-25T02:15:55;16.13;;;4.35;;
64293;SDS011;50636;45.596;5.258;2023-04-25T02:18:20;8.63;;;3.40;;
64293;SDS011;50636;45.596;5.258;2023-04-25T02:20:46;35.53;;;5.07;;
64293;SDS011;50636;45.596;5.258;2023-04-25T02:23:12;38.75;;;6.72;;
64293;SDS011;50636;45.596;5.258;2023-04-25T02:25:40;37.95;;;7.25;;
64293;SDS011;50636;45.596;5.258;2023-04-25T02:28:06;60.58;;;7.32;;
64293;SDS011;50636;45.596;5.258;2023-04-25T02:30:32;71.82;;;10.95;;
64293;SDS011;50636;45.596;5.258;2023-04-25T02:32:58;51.53;;;7.60;;
64293;SDS011;50636;45.596;5.258;2023-04-25T02:35:24;32.25;;;5.10;;
64293;SDS011;50636;45.596;5.258;2023-04-25T02:37:50;31.20;;;6.13;;
64293;SDS011;50636;45.596;5.258;2023-04-25T02:40:16;45.83;;;7.47;;
64293;SDS011;50636;45.596;5.258;2023-04-25T02:42:42;22.70;;;4.70;;
64293;SDS011;50636;45.596;5.258;2023-04-25T02:45:07;26.05;;;5.10;;
64293;SDS011;50636;45.596;5.258;2023-04-25T02:47:34;21.15;;;5.30;;
64293;SDS011;50636;45.596;5.258;2023-04-25T02:50:00;15.68;;;5.13;;
64293;SDS011;50636;45.596;5.258;2023-04-25T02:52:25;28.05;;;5.45;;
64293;SDS011;50636;45.596;5.258;2023-04-25T02:54:51;28.80;;;7.13;;
64293;SDS011;50636;45.596;5.258;2023-04-25T02:57:17;16.02;;;4.55;;
64293;SDS011;50636;45.596;5.258;2023-04-25T02:59:42;20.98;;;5.28;;
64293;SDS011;50636;45.596;5.258;2023-04-25T03:02:09;21.45;;;5.43;;
64293;SDS011;50636;45.596;5.258;2023-04-25T03:04:35;26.75;;;6.20;;
64293;SDS011;50636;45.596;5.258;2023-04-25T03:07:01;17.90;;;4.72;;
64293;SDS011;50636;45.596;5.258;2023-04-25T03:09:27;20.75;;;4.50;;
64293;SDS011;50636;45.596;5.258;2023-04-25T03:11:53;14.63;;;4.50;;
64293;SDS011;50636;45.596;5.258;2023-04-25T03:14:18;27.38;;;6.25;;
64293;SDS011;50636;45.596;5.258;2023-04-25T03:16:44;15.77;;;5.72;;
64293;SDS011;50636;45.596;5.258;2023-04-25T03:19:10;49.83;;;11.02;;
64293;SDS011;50636;45.596;5.258;2023-04-25T03:21:36;10.40;;;4.32;;
64293;SDS011;50636;45.596;5.258;2023-04-25T03:24:03;16.48;;;4.78;;
64293;SDS011;50636;45.596;5.258;2023-04-25T03:26:29;11.85;;;4.40;;
64293;SDS011;50636;45.596;5.258;2023-04-25T03:28:55;22.95;;;5.80;;
64293;SDS011;50636;45.596;5.258;2023-04-25T03:31:21;19.33;;;4.90;;
64293;SDS011;50636;45.596;5.258;2023-04-25T03:33:47;16.85;;;4.30;;
64293;SDS011;50636;45.596;5.258;2023-04-25T03:36:13;20.25;;;5.18;;
64293;SDS011;50636;45.596;5.258;2023-04-25T03:38:39;20.98;;;5.13;;
64293;SDS011;50636;45.596;5.258;2023-04-25T03:41:06;16.35;;;4.43;;
64293;SDS011;50636;45.596;5.258;2023-04-25T03:43:32;36.22;;;5.95;;
64293;SDS011;50636;45.596;5.258;2023-04-25T03:45:58;17.73;;;4.65;;
64293;SDS011;50636;45.596;5.258;2023-04-25T03:48:25;11.85;;;4.22;;
64293;SDS011;50636;45.596;5.258;2023-04-25T03:50:51;20.85;;;5.07;;
64293;SDS011;50636;45.596;5.258;2023-04-25T03:53:18;14.20;;;4.07;;
64293;SDS011;50636;45.596;5.258;2023-04-25T03:55:44;9.50;;;3.95;;
64293;SDS011;50636;45.596;5.258;2023-04-25T03:58:10;9.60;;;3.63;;
64293;SDS011;50636;45.596;5.258;2023-04-25T04:00:36;13.57;;;4.53;;
64293;SDS011;50636;45.596;5.258;2023-04-25T04:03:02;11.68;;;3.80;;
64293;SDS011;50636;45.596;5.258;2023-04-25T04:05:27;11.63;;;4.07;;
64293;SDS011;50636;45.596;5.258;2023-04-25T04:07:54;8.50;;;3.67;;
64293;SDS011;50636;45.596;5.258;2023-04-25T04:10:20;19.05;;;4.35;;
64293;SDS011;50636;45.596;5.258;2023-04-25T04:12:46;17.92;;;4.80;;
64293;SDS011;50636;45.596;5.258;2023-04-25T04:15:12;21.95;;;4.28;;
64293;SDS011;50636;45.596;5.258;2023-04-25T04:17:38;9.77;;;4.32;;
64293;SDS011;50636;45.596;5.258;2023-04-25T04:20:04;15.15;;;4.57;;
64293;SDS011;50636;45.596;5.258;2023-04-25T04:22:31;15.88;;;5.47;;
64293;SDS011;50636;45.596;5.258;2023-04-25T04:24:56;14.27;;;5.57;;
64293;SDS011;50636;45.596;5.258;2023-04-25T04:27:22;18.58;;;8.73;;
64293;SDS011;50636;45.596;5.258;2023-04-25T04:29:48;16.33;;;10.02;;
64293;SDS011;50636;45.596;5.258;2023-04-25T04:32:15;14.35;;;4.63;;
64293;SDS011;50636;45.596;5.258;2023-04-25T04:34:42;11.43;;;4.50;;
64293;SDS011;50636;45.596;5.258;2023-04-25T04:37:08;8.18;;;4.53;;
64293;SDS011;50636;45.596;5.258;2023-04-25T04:39:35;16.52;;;4.75;;
64293;SDS011;50636;45.596;5.258;2023-04-25T04:42:00;15.90;;;5.20;;
64293;SDS011;50636;45.596;5.258;2023-04-25T04:44:30;11.27;;;4.00;;
64293;SDS011;50636;45.596;5.258;2023-04-25T04:46:59;12.80;;;4.60;;
64293;SDS011;50636;45.596;5.258;2023-04-25T04:49:25;14.00;;;4.68;;
64293;SDS011;50636;45.596;5.258;2023-04-25T04:51:51;12.68;;;4.13;;
64293;SDS011;50636;45.596;5.258;2023-04-25T04:54:17;22.23;;;4.85;;
64293;SDS011;50636;45.596;5.258;2023-04-25T04:56:43;10.90;;;4.78;;
64293;SDS011;50636;45.596;5.258;2023-04-25T04:59:09;11.35;;;5.05;;
64293;SDS011;50636;45.596;5.258;2023-04-25T05:01:36;15.98;;;4.75;;
64293;SDS011;50636;45.596;5.258;2023-04-25T05:04:02;33.30;;;5.93;;
64293;SDS011;50636;45.596;5.258;2023-04-25T05:06:28;17.48;;;4.55;;
64293;SDS011;50636;45.596;5.258;2023-04-25T05:08:56;25.27;;;7.40;;
64293;SDS011;50636;45.596;5.258;2023-04-25T05:11:25;15.55;;;6.50;;
64293;SDS011;50636;45.596;5.258;2023-04-25T05:13:52;26.35;;;15.73;;
64293;SDS011;50636;45.596;5.258;2023-04-25T05:16:18;19.05;;;5.10;;
64293;SDS011;50636;45.596;5.258;2023-04-25T05:18:43;79.25;;;8.60;;
64293;SDS011;50636;45.596;5.258;2023-04-25T05:21:09;45.28;;;5.70;;
64293;SDS011;50636;45.596;5.258;2023-04-25T05:23:35;33.53;;;5.82;;
64293;SDS011;50636;45.596;5.258;2023-04-25T05:26:01;39.70;;;5.95;;
64293;SDS011;50636;45.596;5.258;2023-04-25T05:28:27;25.95;;;5.28;;
64293;SDS011;50636;45.596;5.258;2023-04-25T05:30:52;16.17;;;4.28;;
64293;SDS011;50636;45.596;5.258;2023-04-25T05:33:19;345.92;;;19.65;;
64293;SDS011;50636;45.596;5.258;2023-04-25T05:35:45;158.13;;;11.02;;
64293;SDS011;50636;45.596;5.258;2023-04-25T05:38:10;90.65;;;8.07;;
64293;SDS011;50636;45.596;5.258;2023-04-25T05:40:36;86.05;;;7.07;;
64293;SDS011;50636;45.596;5.258;2023-04-25T05:43:02;36.83;;;5.22;;
64293;SDS011;50636;45.596;5.258;2023-04-25T05:45:28;26.20;;;4.95;;
64293;SDS011;50636;45.596;5.258;2023-04-25T05:47:53;47.47;;;6.18;;
64293;SDS011;50636;45.596;5.258;2023-04-25T05:50:19;30.52;;;5.38;;
64293;SDS011;50636;45.596;5.258;2023-04-25T05:52:45;26.65;;;5.05;;
64293;SDS011;50636;45.596;5.258;2023-04-25T05:55:11;38.35;;;5.93;;
64293;SDS011;50636;45.596;5.258;2023-04-25T05:57:36;38.53;;;5.75;;
64293;SDS011;50636;45.596;5.258;2023-04-25T06:00:07;60.97;;;6.82;;
64293;SDS011;50636;45.596;5.258;2023-04-25T06:02:34;37.17;;;5.75;;
64293;SDS011;50636;45.596;5.258;2023-04-25T06:05:00;19.83;;;4.95;;
64293;SDS011;50636;45.596;5.258;2023-04-25T06:07:28;17.25;;;3.88;;
64293;SDS011;50636;45.596;5.258;2023-04-25T06:09:55;23.98;;;5.47;;
64293;SDS011;50636;45.596;5.258;2023-04-25T06:12:21;26.27;;;5.75;;
64293;SDS011;50636;45.596;5.258;2023-04-25T06:14:47;44.30;;;6.53;;
64293;SDS011;50636;45.596;5.258;2023-04-25T06:17:13;20.55;;;4.38;;
64293;SDS011;50636;45.596;5.258;2023-04-25T06:19:39;25.13;;;5.03;;
64293;SDS011;50636;45.596;5.258;2023-04-25T06:22:04;25.17;;;5.05;;
64293;SDS011;50636;45.596;5.258;2023-04-25T06:24:32;16.42;;;5.18;;
64293;SDS011;50636;45.596;5.258;2023-04-25T06:26:58;31.10;;;5.80;;
64293;SDS011;50636;45.596;5.258;2023-04-25T06:29:23;16.70;;;4.88;;
64293;SDS011;50636;45.596;5.258;2023-04-25T06:31:49;18.15;;;5.85;;
64293;SDS011;50636;45.596;5.258;2023-04-25T06:34:15;21.08;;;7.15;;
64293;SDS011;50636;45.596;5.258;2023-04-25T06:36:41;35.03;;;8.50;;
64293;SDS011;50636;45.596;5.258;2023-04-25T06:39:07;17.27;;;5.57;;
64293;SDS011;50636;45.596;5.258;2023-04-25T06:41:34;10.80;;;3.83;;
64293;SDS011;50636;45.596;5.258;2023-04-25T06:44:00;19.70;;;4.63;;
64293;SDS011;50636;45.596;5.258;2023-04-25T06:46:26;24.10;;;5.78;;
64293;SDS011;50636;45.596;5.258;2023-04-25T06:48:52;13.45;;;4.40;;
64293;SDS011;50636;45.596;5.258;2023-04-25T06:51:17;10.35;;;4.30;;
64293;SDS011;50636;45.596;5.258;2023-04-25T06:53:43;21.48;;;5.55;;
64293;SDS011;50636;45.596;5.258;2023-04-25T06:56:09;14.02;;;4.82;;
64293;SDS011;50636;45.596;5.258;2023-04-25T06:58:35;13.25;;;4.47;;
64293;SDS011;50636;45.596;5.258;2023-04-25T07:01:00;23.55;;;4.80;;
64293;SDS011;50636;45.596;5.258;2023-04-25T07:03:26;17.02;;;6.30;;
64293;SDS011;50636;45.596;5.258;2023-04-25T07:05:52;18.23;;;4.90;;
64293;SDS011;50636;45.596;5.258;2023-04-25T07:08:18;37.38;;;5.22;;
64293;SDS011;50636;45.596;5.258;2023-04-25T07:10:43;23.33;;;5.50;;
64293;SDS011;50636;45.596;5.258;2023-04-25T07:13:11;289.45;;;19.60;;
64293;SDS011;50636;45.596;5.258;2023-04-25T07:15:37;325.38;;;22.67;;
64293;SDS011;50636;45.596;5.258;2023-04-25T07:18:03;168.40;;;11.95;;
64293;SDS011;50636;45.596;5.258;2023-04-25T07:20:28;103.28;;;9.07;;
64293;SDS011;50636;45.596;5.258;2023-04-25T07:22:56;66.07;;;7.97;;
64293;SDS011;50636;45.596;5.258;2023-04-25T07:25:22;80.38;;;9.07;;
64293;SDS011;50636;45.596;5.258;2023-04-25T07:27:48;125.68;;;8.88;;
64293;SDS011;50636;45.596;5.258;2023-04-25T07:30:14;146.75;;;10.05;;
64293;SDS011;50636;45.596;5.258;2023-04-25T07:32:40;29.85;;;6.20;;
64293;SDS011;50636;45.596;5.258;2023-04-25T07:35:06;33.90;;;6.18;;
64293;SDS011;50636;45.596;5.258;2023-04-25T07:37:35;45.78;;;5.93;;
64293;SDS011;50636;45.596;5.258;2023-04-25T07:40:02;28.25;;;5.07;;
64293;SDS011;50636;45.596;5.258;2023-04-25T07:42:29;40.08;;;8.25;;
64293;SDS011;50636;45.596;5.258;2023-04-25T07:44:55;50.25;;;7.35;;
64293;SDS011;50636;45.596;5.258;2023-04-25T07:47:21;28.70;;;4.68;;
64293;SDS011;50636;45.596;5.258;2023-04-25T07:49:47;17.80;;;3.80;;
64293;SDS011;50636;45.596;5.258;2023-04-25T07:52:13;12.65;;;4.25;;
64293;SDS011;50636;45.596;5.258;2023-04-25T07:54:39;11.73;;;3.40;;
64293;SDS011;50636;45.596;5.258;2023-04-25T07:57:05;12.77;;;4.20;;
64293;SDS011;50636;45.596;5.258;2023-04-25T07:59:34;11.57;;;3.58;;
64293;SDS011;50636;45.596;5.258;2023-04-25T08:02:00;13.75;;;3.38;;
64293;SDS011;50636;45.596;5.258;2023-04-25T08:04:26;13.65;;;4.13;;
64293;SDS011;50636;45.596;5.258;2023-04-25T08:06:51;14.75;;;3.97;;
64293;SDS011;50636;45.596;5.258;2023-04-25T08:09:19;13.10;;;4.50;;
64293;SDS011;50636;45.596;5.258;2023-04-25T08:11:45;11.30;;;3.33;;
64293;SDS011;50636;45.596;5.258;2023-04-25T08:14:11;10.43;;;3.03;;
64293;SDS011;50636;45.596;5.258;2023-04-25T08:16:37;15.30;;;4.28;;
64293;SDS011;50636;45.596;5.258;2023-04-25T08:19:03;8.63;;;3.08;;
64293;SDS011;50636;45.596;5.258;2023-04-25T08:21:30;9.95;;;3.03;;
64293;SDS011;50636;45.596;5.258;2023-04-25T08:23:56;13.55;;;3.53;;
64293;SDS011;50636;45.596;5.258;2023-04-25T08:26:23;23.80;;;4.80;;
64293;SDS011;50636;45.596;5.258;2023-04-25T08:28:50;13.70;;;3.90;;
64293;SDS011;50636;45.596;5.258;2023-04-25T08:31:16;14.57;;;4.32;;
64293;SDS011;50636;45.596;5.258;2023-04-25T08:33:42;13.43;;;3.55;;
64293;SDS011;50636;45.596;5.258;2023-04-25T08:36:09;10.20;;;3.20;;
64293;SDS011;50636;45.596;5.258;2023-04-25T08:38:35;9.77;;;3.10;;
64293;SDS011;50636;45.596;5.258;2023-04-25T08:41:01;9.48;;;3.50;;
64293;SDS011;50636;45.596;5.258;2023-04-25T08:43:28;10.73;;;4.10;;
64293;SDS011;50636;45.596;5.258;2023-04-25T08:45:59;13.20;;;4.63;;
64293;SDS011;50636;45.596;5.258;2023-04-25T08:48:26;9.93;;;3.40;;
64293;SDS011;50636;45.596;5.258;2023-04-25T08:50:54;17.15;;;4.05;;
64293;SDS011;50636;45.596;5.258;2023-04-25T08:53:30;8.77;;;3.33;;
64293;SDS011;50636;45.596;5.258;2023-04-25T08:55:58;9.35;;;2.78;;
64293;SDS011;50636;45.596;5.258;2023-04-25T08:58:27;12.13;;;2.97;;
64293;SDS011;50636;45.596;5.258;2023-04-25T09:00:53;14.00;;;3.65;;
64293;SDS011;50636;45.596;5.258;2023-04-25T09:03:19;11.50;;;2.88;;
64293;SDS011;50636;45.596;5.258;2023-04-25T09:05:45;12.52;;;2.63;;
64293;SDS011;50636;45.596;5.258;2023-04-25T09:08:11;17.08;;;3.05;;
64293;SDS011;50636;45.596;5.258;2023-04-25T09:10:38;14.95;;;3.85;;
64293;SDS011;50636;45.596;5.258;2023-04-25T09:15:31;12.82;;;3.05;;
64293;SDS011;50636;45.596;5.258;2023-04-25T09:18:00;14.52;;;2.83;;
64293;SDS011;50636;45.596;5.258;2023-04-25T09:20:26;18.73;;;3.33;;
64293;SDS011;50636;45.596;5.258;2023-04-25T09:23:03;25.08;;;3.13;;
64293;SDS011;50636;45.596;5.258;2023-04-25T09:25:36;19.85;;;3.00;;
64293;SDS011;50636;45.596;5.258;2023-04-25T09:28:04;8.17;;;2.20;;
64293;SDS011;50636;45.596;5.258;2023-04-25T09:30:32;10.15;;;2.83;;
64293;SDS011;50636;45.596;5.258;2023-04-25T09:33:06;13.68;;;2.65;;
64293;SDS011;50636;45.596;5.258;2023-04-25T09:35:40;16.17;;;2.90;;
64293;SDS011;50636;45.596;5.258;2023-04-25T09:38:11;10.00;;;1.98;;
64293;SDS011;50636;45.596;5.258;2023-04-25T09:40:40;15.80;;;3.05;;
64293;SDS011;50636;45.596;5.258;2023-04-25T09:43:10;7.78;;;2.30;;
64293;SDS011;50636;45.596;5.258;2023-04-25T09:45:46;13.40;;;2.63;;
64293;SDS011;50636;45.596;5.258;2023-04-25T09:48:19;11.82;;;2.25;;
64293;SDS011;50636;45.596;5.258;2023-04-25T09:51:05;7.28;;;2.03;;
64293;SDS011;50636;45.596;5.258;2023-04-25T09:53:36;16.85;;;2.05;;
64293;SDS011;50636;45.596;5.258;2023-04-25T09:56:04;4.40;;;1.40;;
64293;SDS011;50636;45.596;5.258;2023-04-25T09:58:35;7.53;;;1.80;;
64293;SDS011;50636;45.596;5.258;2023-04-25T10:01:06;8.02;;;2.30;;
64293;SDS011;50636;45.596;5.258;2023-04-25T10:03:34;10.13;;;2.17;;
64293;SDS011;50636;45.596;5.258;2023-04-25T10:06:08;6.40;;;2.00;;
64293;SDS011;50636;45.596;5.258;2023-04-25T10:08:37;8.75;;;2.28;;
64293;SDS011;50636;45.596;5.258;2023-04-25T10:11:04;12.23;;;2.60;;
64293;SDS011;50636;45.596;5.258;2023-04-25T10:13:32;12.52;;;3.28;;
64293;SDS011;50636;45.596;5.258;2023-04-25T10:16:00;11.75;;;2.90;;
64293;SDS011;50636;45.596;5.258;2023-04-25T10:18:32;9.55;;;2.88;;
64293;SDS011;50636;45.596;5.258;2023-04-25T10:20:59;14.48;;;3.15;;
64293;SDS011;50636;45.596;5.258;2023-04-25T10:23:26;12.40;;;2.30;;
64293;SDS011;50636;45.596;5.258;2023-04-25T10:25:54;26.27;;;3.30;;
64293;SDS011;50636;45.596;5.258;2023-04-25T10:28:21;8.05;;;1.95;;
64293;SDS011;50636;45.596;5.258;2023-04-25T10:30:56;5.00;;;2.05;;
64293;SDS011;50636;45.596;5.258;2023-04-25T10:33:32;8.45;;;2.10;;
64293;SDS011;50636;45.596;5.258;2023-04-25T10:36:35;13.75;;;2.67;;
64293;SDS011;50636;45.596;5.258;2023-04-25T10:38:56;11.38;;;2.22;;
64293;SDS011;50636;45.596;5.258;2023-04-25T10:41:47;8.32;;;1.98;;
64293;SDS011;50636;45.596;5.258;2023-04-25T10:44:18;7.05;;;1.52;;
64293;SDS011;50636;45.596;5.258;2023-04-25T10:46:44;25.85;;;3.85;;
64293;SDS011;50636;45.596;5.258;2023-04-25T10:54:40;11.40;;;2.20;;
64293;SDS011;50636;45.596;5.258;2023-04-25T10:57:07;5.65;;;1.65;;
64293;SDS011;50636;45.596;5.258;2023-04-25T10:59:33;10.05;;;1.80;;
64293;SDS011;50636;45.596;5.258;2023-04-25T11:01:59;7.80;;;1.85;;
64293;SDS011;50636;45.596;5.258;2023-04-25T11:04:38;6.90;;;1.83;;
64293;SDS011;50636;45.596;5.258;2023-04-25T11:10:04;20.25;;;3.13;;
64293;SDS011;50636;45.596;5.258;2023-04-25T11:12:31;8.88;;;2.03;;
64293;SDS011;50636;45.596;5.258;2023-04-25T11:15:01;6.15;;;1.45;;
64293;SDS011;50636;45.596;5.258;2023-04-25T11:17:31;12.43;;;2.53;;
64293;SDS011;50636;45.596;5.258;2023-04-25T11:19:58;6.97;;;1.83;;
64293;SDS011;50636;45.596;5.258;2023-04-25T11:22:26;3.58;;;1.48;;
64293;SDS011;50636;45.596;5.258;2023-04-25T11:24:52;4.70;;;1.40;;
64293;SDS011;50636;45.596;5.258;2023-04-25T11:27:18;17.42;;;2.30;;
64293;SDS011;50636;45.596;5.258;2023-04-25T11:29:46;10.30;;;2.38;;
64293;SDS011;50636;45.596;5.258;2023-04-25T11:32:14;7.97;;;1.60;;
64293;SDS011;50636;45.596;5.258;2023-04-25T11:34:42;10.57;;;2.13;;
64293;SDS011;50636;45.596;5.258;2023-04-25T11:37:10;13.35;;;2.15;;
64293;SDS011;50636;45.596;5.258;2023-04-25T11:39:42;13.77;;;2.17;;
64293;SDS011;50636;45.596;5.258;2023-04-25T11:42:10;8.68;;;1.73;;
64293;SDS011;50636;45.596;5.258;2023-04-25T11:44:37;14.40;;;2.60;;
64293;SDS011;50636;45.596;5.258;2023-04-25T11:47:04;16.10;;;2.65;;
64293;SDS011;50636;45.596;5.258;2023-04-25T11:49:30;9.57;;;2.22;;
64293;SDS011;50636;45.596;5.258;2023-04-25T11:51:57;7.30;;;1.95;;
64293;SDS011;50636;45.596;5.258;2023-04-25T11:54:23;6.25;;;1.80;;
64293;SDS011;50636;45.596;5.258;2023-04-25T11:56:49;7.30;;;1.80;;
64293;SDS011;50636;45.596;5.258;2023-04-25T11:59:14;11.95;;;2.83;;
64293;SDS011;50636;45.596;5.258;2023-04-25T12:01:47;13.85;;;2.67;;
64293;SDS011;50636;45.596;5.258;2023-04-25T12:04:15;7.07;;;1.95;;
64293;SDS011;50636;45.596;5.258;2023-04-25T12:06:43;15.55;;;3.30;;
64293;SDS011;50636;45.596;5.258;2023-04-25T12:09:13;4.80;;;2.10;;
64293;SDS011;50636;45.596;5.258;2023-04-25T12:14:23;5.32;;;2.05;;
64293;SDS011;50636;45.596;5.258;2023-04-25T12:16:52;3.85;;;1.70;;
64293;SDS011;50636;45.596;5.258;2023-04-25T12:19:20;7.25;;;2.45;;
64293;SDS011;50636;45.596;5.258;2023-04-25T12:21:47;6.32;;;1.98;;
64293;SDS011;50636;45.596;5.258;2023-04-25T12:24:15;8.73;;;1.90;;
64293;SDS011;50636;45.596;5.258;2023-04-25T12:26:57;6.53;;;1.90;;
64293;SDS011;50636;45.596;5.258;2023-04-25T12:29:26;11.68;;;2.25;;
64293;SDS011;50636;45.596;5.258;2023-04-25T12:31:54;8.30;;;2.00;;
64293;SDS011;50636;45.596;5.258;2023-04-25T12:34:20;13.77;;;2.10;;
64293;SDS011;50636;45.596;5.258;2023-04-25T12:36:47;11.82;;;1.70;;
64293;SDS011;50636;45.596;5.258;2023-04-25T12:39:14;4.43;;;1.75;;
64293;SDS011;50636;45.596;5.258;2023-04-25T12:41:41;15.65;;;7.93;;
64293;SDS011;50636;45.596;5.258;2023-04-25T12:44:07;205.35;;;156.00;;
64293;SDS011;50636;45.596;5.258;2023-04-25T12:46:32;113.28;;;68.68;;
64293;SDS011;50636;45.596;5.258;2023-04-25T12:48:58;65.07;;;23.20;;
64293;SDS011;50636;45.596;5.258;2023-04-25T12:51:25;31.13;;;8.55;;
64293;SDS011;50636;45.596;5.258;2023-04-25T12:53:53;577.58;;;525.15;;
64293;SDS011;50636;45.596;5.258;2023-04-25T12:56:19;413.00;;;375.83;;
64293;SDS011;50636;45.596;5.258;2023-04-25T12:58:45;250.15;;;228.77;;
64293;SDS011;50636;45.596;5.258;2023-04-25T13:01:11;83.38;;;75.30;;
64293;SDS011;50636;45.596;5.258;2023-04-25T13:03:39;31.88;;;28.10;;
64293;SDS011;50636;45.596;5.258;2023-04-25T13:06:06;19.98;;;17.63;;
64293;SDS011;50636;45.596;5.258;2023-04-25T13:08:32;25.17;;;22.75;;
64293;SDS011;50636;45.596;5.258;2023-04-25T13:10:58;40.25;;;36.22;;
64293;SDS011;50636;45.596;5.258;2023-04-25T13:13:23;185.27;;;159.43;;
64293;SDS011;50636;45.596;5.258;2023-04-25T13:15:49;25.27;;;17.15;;
64293;SDS011;50636;45.596;5.258;2023-04-25T13:18:15;21.35;;;15.18;;
64293;SDS011;50636;45.596;5.258;2023-04-25T13:20:41;16.58;;;11.70;;
64293;SDS011;50636;45.596;5.258;2023-04-25T13:23:07;21.10;;;8.73;;
64293;SDS011;50636;45.596;5.258;2023-04-25T13:25:33;25.85;;;13.55;;
64293;SDS011;50636;45.596;5.258;2023-04-25T13:27:59;8.25;;;4.50;;
64293;SDS011;50636;45.596;5.258;2023-04-25T13:30:25;10.40;;;5.07;;
64293;SDS011;50636;45.596;5.258;2023-04-25T13:32:51;15.52;;;6.93;;
64293;SDS011;50636;45.596;5.258;2023-04-25T13:35:17;5.65;;;2.83;;
64293;SDS011;50636;45.596;5.258;2023-04-25T13:37:43;9.73;;;2.58;;
64293;SDS011;50636;45.596;5.258;2023-04-25T13:40:10;8.52;;;3.10;;
64293;SDS011;50636;45.596;5.258;2023-04-25T13:42:37;10.18;;;1.90;;
64293;SDS011;50636;45.596;5.258;2023-04-25T13:45:03;9.18;;;2.30;;
64293;SDS011;50636;45.596;5.258;2023-04-25T13:47:29;5.82;;;1.55;;
64293;SDS011;50636;45.596;5.258;2023-04-25T13:49:56;4.00;;;1.42;;
64293;SDS011;50636;45.596;5.258;2023-04-25T13:52:22;7.15;;;2.40;;
64293;SDS011;50636;45.596;5.258;2023-04-25T13:54:51;8.23;;;1.85;;
64293;SDS011;50636;45.596;5.258;2023-04-25T13:57:17;4.43;;;1.45;;
64293;SDS011;50636;45.596;5.258;2023-04-25T13:59:43;8.18;;;1.45;;
64293;SDS011;50636;45.596;5.258;2023-04-25T14:02:09;5.80;;;1.73;;
64293;SDS011;50636;45.596;5.258;2023-04-25T14:04:35;5.60;;;1.70;;
64293;SDS011;50636;45.596;5.258;2023-04-25T14:07:02;6.72;;;1.45;;
64293;SDS011;50636;45.596;5.258;2023-04-25T14:09:28;5.75;;;1.40;;
64293;SDS011;50636;45.596;5.258;2023-04-25T14:11:55;6.65;;;1.35;;
64293;SDS011;50636;45.596;5.258;2023-04-25T14:14:21;8.05;;;1.63;;
64293;SDS011;50636;45.596;5.258;2023-04-25T14:16:48;6.50;;;1.40;;
64293;SDS011;50636;45.596;5.258;2023-04-25T14:19:18;7.20;;;1.42;;
64293;SDS011;50636;45.596;5.258;2023-04-25T14:21:43;5.13;;;1.63;;
64293;SDS011;50636;45.596;5.258;2023-04-25T14:24:09;5.45;;;1.25;;
64293;SDS011;50636;45.596;5.258;2023-04-25T14:26:38;4.45;;;1.38;;
64293;SDS011;50636;45.596;5.258;2023-04-25T14:29:04;8.45;;;1.63;;
64293;SDS011;50636;45.596;5.258;2023-04-25T14:31:31;4.10;;;1.60;;
64293;SDS011;50636;45.596;5.258;2023-04-25T14:33:57;4.80;;;1.70;;
64293;SDS011;50636;45.596;5.258;2023-04-25T14:36:23;11.63;;;2.17;;
64293;SDS011;50636;45.596;5.258;2023-04-25T14:38:51;7.30;;;1.73;;
64293;SDS011;50636;45.596;5.258;2023-04-25T14:41:17;9.75;;;1.52;;
64293;SDS011;50636;45.596;5.258;2023-04-25T14:43:43;3.70;;;1.25;;
64293;SDS011;50636;45.596;5.258;2023-04-25T14:46:10;9.40;;;2.15;;
64293;SDS011;50636;45.596;5.258;2023-04-25T14:48:36;10.85;;;1.80;;